Harrisburg, PA (17109)

10:53 PM EDT on September 14, 2014 (GMT -0400)
2 Mile SE of Paxtonia | Change Station
CLOSE
Current Station
Personal Weather Station
Location: Harrisburg, PA
Elevation: 469 ft
Nearby Weather Stations

Elev 469 ft 40.30 °N, 76.77 °W | Updated 13 seconds ago

Clear
Clear
44.6 °F
Feels Like 45 °F
N
0.0
Wind Variable Wind from NNW
Gusts 4.0 mph

Today
High -- | Low -- °F
--% Chance of Precip.
Yesterday
High -- | Low -- °F
Precip. -- in
6:47 AM 7:17 PM
Waning Gibbous, 60% visible
Pressure 30.23 in
Visibility 10.0 miles
Clouds Few 4500 ft
Windchill 45 °F
Dew Point 43 °F
Humidity 95%
Rainfall 0.00 in
Snow Depth Not available.
UV 0 out of 12
Pollen 4.80 out of 12
Ozone Good
PM2.5 Good
Flu Activity Not available.
METAR KMDT 150156Z 00000KT 10SM FEW045 12/09 A3022 RMK AO2 SLP235 T01170094

More Conditions Fewer Conditions

Pressure 30.23 in
Visibility 10.0 miles
Clouds Few 4500 ft
Windchill 45 °F
Dew Point 43 °F
Humidity 95%
Rainfall 0.00 in
Snow Depth Not available.
UV 0 out of 12
Pollen 4.80 out of 12
Ozone Good
PM2.5 Good
Flu Activity Not available.
METAR KMDT 150156Z 00000KT 10SM FEW045 12/09 A3022 RMK AO2 SLP235 T01170094

More Conditions Fewer Conditions

10-Day Weather Forecast

Almanac

Astronomy

Sep. 14, 2014 Rise Set
Actual Time 6:47 AM EDT 7:17 PM EDT
Civil Twilight 6:19 AM EDT 7:45 PM EDT
Nautical Twilight 5:47 AM EDT 8:17 PM EDT
Astronomical Twilight 5:14 AM EDT 8:50 PM EDT
Moon 11:07 PM EDT (9/14) 12:51 PM EDT (9/14)
Length of Visible Light 13h 25m
Length of Day
12h 30m
Tomorrow will be 2m 38s shorter.
Waning Gibbous, 60% of the Moon is Illuminated
Today
Waning Gibbous
Sep 15
Last Quarter
Sep 24
New
Oct 1
First Quarter
Oct 8
Full

Today's Extremes

State Highs State Lows

Community

WunderPhotos

Upload Photos

1,753,385 photos uploaded!

Nearby

Air Quality

  Air Quality AQ Index Pollutant
Yesterday Good
PM2.5
Yesterday Good
OZONE
Current Good
PM2.5
Current Good
OZONE
Sunday Good
PM2.5
Sunday Good
OZONE
Monday Moderate
PM2.5
Monday Good
OZONE
Tuesday Good
PM2.5
Tuesday Good
OZONE

Snow Depth

Station Depth Elevation
No new snow has been reported.

Earthquake Activity

City Distance Mag. Time & Date
No recent earthquake activity has been reported nearby.
Minimum magnitude displayed is 2.5.

Coastal Water Temperatures

Place Temperature
No Stations Reporting

Nearby Weather Stations